Forside
METAR-TAF:

METAR-TAF

Lufthavne :

Inverness, Skotland

Breddekreds: 57-32N, længdekreds: 004-03W, højde: 9 m

Aktuelle vejr

Denne rapport blev lavet for 29 minutter siden, kl. 17:20 UTC
Vind 15 kt fra sydsydvest
Temperatur 5°C
Fugtighed 87%
Tryk 990 hPa
Sigt 10 km eller mere
Nogle få skyer i en højde af 2000 ft, Cumulonimbus.

METAR: EGPE 171720Z 21015KT 9999 FEW020CB 05/03 Q0990

Tid: 17:49 (17:49 UTC)

Vejrudsigter

Denne rapport blev lavet for 54 minutter siden, kl. 16:55 UTC
Foreløbig gælder fra 17 på 18 UTC til 18 på 03 UTC
Vind 16 kt fra sydvest
Sigt 10 km eller mere
Nogle få skyer i en højde af 1700 ft
Spredte skyer i en højde af 3000 ft
Sandsynlighed 40% :
Midlertidig
fra 17 på 18 UTC til 18 på 03 UTC
Vind 23 kt fra sydvest med vindstød på up til 35 kt
Sigt: 6000 m
regnbyger

TAF: EGPE 171655Z 1718/1803 22016KT 9999 FEW017 SCT030 PROB40 TEMPO 1718/1803 23023G35KT 6000 SHRA

Vejrobservationer og prognoser fra mere end 4000 lufthavne (METAR og TAF).

De gule og røde prikker repræsenterer de meteorologiske stationer.

Flyt musen over at se navnet på stationen.

Så klik over at se vejr observationer og prognoser.

At skifte det kort: Klik på de grønne knapper med et sort kors for at zoome ind; på den grønne knap med en bindestreg for at zoome ud; eller på de grønne pile for tilstødende kort.


METAR-TAF: